createdAt,value
2023-01-23T00:01:35.134Z,8.72
2023-01-23T00:04:05.521Z,8.72
2023-01-23T00:06:37.116Z,8.72
2023-01-23T00:09:07.390Z,8.70
2023-01-23T00:11:36.432Z,8.71
2023-01-23T00:14:05.111Z,8.72
2023-01-23T00:16:35.963Z,8.72
2023-01-23T00:19:04.730Z,8.71
2023-01-23T00:21:36.058Z,8.70
2023-01-23T00:24:04.923Z,8.69
2023-01-23T00:26:36.316Z,8.68
2023-01-23T00:29:05.876Z,8.69
2023-01-23T00:31:37.917Z,8.69
2023-01-23T00:34:08.463Z,8.71
2023-01-23T00:36:39.507Z,8.67
2023-01-23T00:39:16.760Z,8.66
2023-01-23T00:41:47.364Z,8.67
2023-01-23T00:44:16.529Z,8.69
2023-01-23T00:46:45.553Z,8.69
2023-01-23T00:49:14.606Z,8.70
2023-01-23T00:51:44.475Z,8.68
2023-01-23T00:54:13.527Z,8.68
2023-01-23T00:56:42.245Z,8.68
2023-01-23T00:59:12.133Z,8.68
2023-01-23T01:01:40.916Z,8.65
2023-01-23T01:04:09.355Z,8.65
2023-01-23T01:06:38.075Z,8.64
2023-01-23T01:09:07.554Z,8.63
2023-01-23T01:11:36.176Z,8.62
2023-01-23T01:14:05.563Z,8.58
2023-01-23T01:16:35.795Z,8.60
2023-01-23T01:19:05.293Z,8.55
2023-01-23T01:21:33.953Z,8.58
2023-01-23T01:24:02.733Z,8.60
2023-01-23T01:26:31.402Z,8.62
2023-01-23T01:28:59.856Z,8.68
2023-01-23T01:31:28.822Z,8.85
2023-01-23T01:33:59.732Z,8.86
2023-01-23T01:36:28.593Z,8.89
2023-01-23T01:38:57.283Z,8.87
2023-01-23T01:41:25.748Z,8.97
2023-01-23T01:43:57.242Z,9.07
2023-01-23T01:46:27.622Z,9.22
2023-01-23T01:49:07.681Z,9.36
2023-01-23T01:51:40.841Z,9.44
2023-01-23T01:54:16.048Z,9.52
2023-01-23T01:56:50.701Z,9.62
2023-01-23T01:59:21.752Z,9.66
2023-01-23T02:01:56.118Z,9.71
2023-01-23T02:04:26.710Z,9.71
2023-01-23T02:06:56.933Z,9.72
2023-01-23T02:09:27.811Z,9.76
2023-01-23T02:11:56.706Z,9.82
2023-01-23T02:14:26.128Z,9.93
2023-01-23T02:17:00.054Z,9.93
2023-01-23T02:19:45.677Z,9.92
2023-01-23T02:22:42.242Z,9.90
2023-01-23T02:25:18.599Z,9.93
2023-01-23T02:27:48.784Z,9.96
2023-01-23T02:30:19.074Z,9.95
2023-01-23T02:32:47.878Z,9.93
2023-01-23T02:35:24.669Z,9.88
2023-01-23T02:37:56.970Z,9.87
2023-01-23T02:40:33.129Z,9.85
2023-01-23T02:43:04.467Z,9.86
2023-01-23T02:45:33.650Z,9.93
2023-01-23T02:48:03.331Z,9.84
2023-01-23T02:50:32.017Z,9.80
2023-01-23T02:53:00.754Z,9.77
2023-01-23T02:55:33.676Z,9.75
2023-01-23T02:58:17.392Z,9.74
2023-01-23T03:00:46.184Z,9.74
2023-01-23T03:03:16.352Z,9.78
2023-01-23T03:05:45.105Z,9.83
2023-01-23T03:08:14.733Z,9.83
2023-01-23T03:10:45.116Z,9.85
2023-01-23T03:13:15.299Z,9.84
2023-01-23T03:15:43.864Z,9.82
2023-01-23T03:18:12.570Z,9.87
2023-01-23T03:20:42.472Z,9.89
2023-01-23T03:23:11.481Z,9.87
2023-01-23T03:25:44.871Z,9.85
2023-01-23T03:28:28.960Z,9.92
2023-01-23T03:30:57.694Z,9.95
2023-01-23T03:33:27.166Z,9.92
2023-01-23T03:35:55.801Z,9.91
2023-01-23T03:38:24.205Z,9.91
2023-01-23T03:41:10.006Z,9.89
2023-01-23T03:43:40.074Z,9.88
2023-01-23T03:46:08.719Z,9.99
2023-01-23T03:48:37.423Z,9.97
2023-01-23T03:51:06.373Z,9.94
2023-01-23T03:53:35.101Z,9.92
2023-01-23T03:56:03.939Z,9.88
2023-01-23T03:58:34.153Z,9.84
2023-01-23T04:01:08.152Z,9.81
2023-01-23T04:03:37.081Z,9.79
2023-01-23T04:06:05.877Z,9.80
2023-01-23T04:08:34.514Z,9.79
2023-01-23T04:11:04.721Z,9.76
2023-01-23T04:13:34.204Z,9.74
2023-01-23T04:16:06.130Z,9.70
2023-01-23T04:18:37.817Z,9.58
2023-01-23T04:21:06.819Z,9.47
2023-01-23T04:23:38.270Z,9.36
2023-01-23T04:26:06.863Z,9.28
2023-01-23T04:28:35.465Z,9.21
2023-01-23T04:31:05.486Z,9.16
2023-01-23T04:33:34.206Z,9.13
2023-01-23T04:36:05.391Z,9.09
2023-01-23T04:38:37.796Z,9.07
2023-01-23T04:41:06.791Z,9.07
2023-01-23T04:43:38.041Z,9.06
2023-01-23T04:46:08.190Z,9.04
2023-01-23T04:48:36.533Z,9.02
2023-01-23T04:51:06.010Z,9.00
2023-01-23T04:53:35.230Z,8.98
2023-01-23T04:56:05.474Z,8.99
2023-01-23T04:58:34.126Z,8.98
2023-01-23T05:01:08.915Z,8.96
2023-01-23T05:03:37.956Z,8.95
2023-01-23T05:06:06.833Z,8.94
2023-01-23T05:08:35.532Z,8.93
2023-01-23T05:11:04.184Z,8.92
2023-01-23T05:13:32.784Z,8.92
2023-01-23T05:16:01.535Z,8.91
2023-01-23T05:18:34.501Z,8.90
2023-01-23T05:21:03.240Z,8.88
2023-01-23T05:23:31.599Z,8.89
2023-01-23T05:26:01.212Z,8.85
2023-01-23T05:28:29.933Z,8.85
2023-01-23T05:30:58.857Z,8.83
2023-01-23T05:33:27.499Z,8.84
2023-01-23T05:36:01.293Z,8.86
2023-01-23T05:38:31.273Z,8.87
2023-01-23T05:41:00.290Z,8.87
2023-01-23T05:43:29.454Z,8.87
2023-01-23T05:46:01.269Z,8.90
2023-01-23T05:48:31.649Z,8.89
2023-01-23T05:51:04.061Z,8.86
2023-01-23T05:53:32.596Z,8.86
2023-01-23T05:56:00.930Z,8.86
2023-01-23T05:58:29.263Z,8.85
2023-01-23T06:00:57.842Z,8.83
2023-01-23T06:03:26.715Z,8.83
2023-01-23T06:05:55.314Z,8.82
2023-01-23T06:08:25.480Z,8.82
2023-01-23T06:10:53.957Z,8.82
2023-01-23T06:13:22.287Z,8.82
2023-01-23T06:15:51.040Z,8.81
2023-01-23T06:18:19.598Z,8.81
2023-01-23T06:20:49.188Z,8.80
2023-01-23T06:23:18.424Z,8.80
2023-01-23T06:25:48.266Z,8.78
2023-01-23T06:28:16.635Z,8.77
2023-01-23T06:30:45.242Z,8.75
2023-01-23T06:33:14.129Z,8.79
2023-01-23T06:35:42.812Z,8.74
2023-01-23T06:38:11.813Z,8.74
2023-01-23T06:40:40.382Z,8.74
2023-01-23T06:43:10.433Z,8.74
2023-01-23T06:45:38.730Z,8.73
2023-01-23T06:48:08.240Z,8.71
2023-01-23T06:50:38.637Z,8.73
2023-01-23T06:53:07.114Z,8.71
2023-01-23T06:55:35.777Z,8.70
2023-01-23T06:58:04.434Z,8.71
2023-01-23T07:00:35.687Z,8.70
2023-01-23T07:03:05.484Z,8.69
2023-01-23T07:05:39.649Z,8.71
2023-01-23T07:08:08.950Z,8.72
2023-01-23T07:10:39.178Z,8.72
2023-01-23T07:13:08.702Z,8.72
2023-01-23T07:15:41.021Z,8.71
2023-01-23T07:18:10.972Z,8.70
2023-01-23T07:20:39.839Z,8.69
2023-01-23T07:23:08.375Z,8.66
2023-01-23T07:25:36.945Z,8.65
2023-01-23T07:28:06.242Z,8.64
2023-01-23T07:30:35.382Z,8.64
2023-01-23T07:33:05.975Z,8.60
2023-01-23T07:35:34.692Z,8.59
2023-01-23T07:38:03.525Z,8.56
2023-01-23T07:40:33.569Z,8.57
2023-01-23T07:43:02.054Z,8.55
2023-01-23T07:45:30.788Z,8.53
2023-01-23T07:47:59.588Z,8.49
2023-01-23T07:50:29.906Z,8.48
2023-01-23T07:52:59.748Z,8.45
2023-01-23T07:55:29.627Z,8.45
2023-01-23T07:57:58.862Z,8.43
2023-01-23T08:00:29.821Z,8.40
2023-01-23T08:02:59.506Z,8.37
2023-01-23T08:05:30.368Z,8.36
2023-01-23T08:08:12.170Z,8.35
2023-01-23T08:13:40.885Z,8.31
2023-01-23T08:16:13.336Z,8.29
2023-01-23T08:18:44.292Z,8.30
2023-01-23T08:21:14.443Z,8.32
2023-01-23T08:23:43.413Z,8.32
2023-01-23T08:26:16.158Z,8.30
2023-01-23T08:28:45.633Z,8.32
2023-01-23T08:31:16.356Z,8.32
2023-01-23T08:33:45.997Z,8.33
2023-01-23T08:36:16.489Z,8.34
2023-01-23T08:38:45.492Z,8.36
2023-01-23T08:41:14.426Z,8.39
2023-01-23T08:43:43.267Z,8.37
2023-01-23T08:46:12.472Z,8.36
2023-01-23T08:48:41.579Z,8.36
2023-01-23T08:51:13.258Z,8.35
2023-01-23T08:53:44.144Z,8.37
2023-01-23T08:56:17.119Z,8.36
2023-01-23T08:58:46.467Z,8.36
2023-01-23T09:01:16.263Z,8.38
2023-01-23T09:03:44.943Z,8.38
2023-01-23T09:06:14.907Z,8.43
2023-01-23T09:08:44.958Z,8.43
2023-01-23T09:11:15.282Z,8.44
2023-01-23T09:13:44.213Z,8.46
2023-01-23T09:16:13.213Z,8.48
2023-01-23T09:18:42.933Z,8.53
2023-01-23T09:21:15.025Z,8.56
2023-01-23T09:23:45.806Z,8.60
2023-01-23T09:26:18.784Z,8.64
2023-01-23T09:28:48.523Z,8.67
2023-01-23T09:31:17.183Z,8.69
2023-01-23T09:33:45.859Z,8.71
2023-01-23T09:36:14.308Z,8.74
2023-01-23T09:38:45.776Z,8.77
2023-01-23T09:41:20.812Z,8.78
2023-01-23T09:43:58.987Z,8.81
2023-01-23T09:46:34.746Z,8.81
2023-01-23T09:49:14.423Z,8.83
2023-01-23T09:51:52.975Z,8.87
2023-01-23T09:54:30.671Z,8.90
2023-01-23T09:57:03.418Z,8.94
2023-01-23T09:59:50.221Z,9.00
2023-01-23T10:02:26.934Z,9.05
2023-01-23T10:04:56.845Z,9.11
2023-01-23T10:07:53.759Z,9.10
2023-01-23T10:10:49.232Z,9.15
2023-01-23T10:13:20.956Z,9.20
2023-01-23T10:16:06.290Z,9.22
2023-01-23T10:18:40.809Z,9.29
2023-01-23T10:21:20.029Z,9.35
2023-01-23T10:23:59.454Z,9.40
2023-01-23T10:26:32.665Z,9.47
2023-01-23T10:29:06.054Z,9.55
2023-01-23T10:31:45.177Z,9.63
2023-01-23T10:34:23.385Z,9.70
2023-01-23T10:37:07.771Z,9.76
2023-01-23T10:39:49.372Z,9.85
2023-01-23T10:42:24.175Z,9.91
2023-01-23T10:44:52.879Z,9.96
2023-01-23T10:47:33.151Z,10.00
2023-01-23T10:50:04.255Z,10.12
2023-01-23T10:52:34.206Z,10.12
2023-01-23T10:55:03.270Z,10.16
2023-01-23T10:57:46.390Z,10.22
2023-01-23T11:00:26.478Z,10.24
2023-01-23T11:02:56.623Z,10.27
2023-01-23T11:05:52.200Z,10.34
2023-01-23T11:08:28.320Z,10.42
2023-01-23T11:11:20.586Z,10.51
2023-01-23T11:13:53.865Z,10.55
2023-01-23T11:16:25.791Z,10.57
2023-01-23T11:18:56.320Z,10.61
2023-01-23T11:21:28.494Z,10.61
2023-01-23T11:24:11.156Z,10.59
2023-01-23T11:26:40.584Z,10.61
2023-01-23T11:29:25.302Z,10.63
2023-01-23T11:31:59.759Z,10.62
2023-01-23T11:34:35.338Z,10.61
2023-01-23T11:37:12.395Z,10.63
2023-01-23T11:39:49.695Z,10.67
2023-01-23T11:42:20.167Z,10.72
2023-01-23T11:44:51.452Z,10.76
2023-01-23T11:47:36.652Z,10.81
2023-01-23T11:50:27.853Z,10.84
2023-01-23T11:53:04.336Z,10.77
2023-01-23T11:55:47.655Z,10.74
2023-01-23T12:01:30.693Z,10.91
2023-01-23T12:04:41.541Z,10.98
2023-01-23T12:07:21.446Z,10.94
2023-01-23T12:10:02.064Z,10.96
2023-01-23T12:12:47.332Z,10.90
2023-01-23T12:15:30.323Z,10.93
2023-01-23T12:18:11.534Z,10.94
2023-01-23T12:20:49.746Z,11.00
2023-01-23T12:23:36.968Z,11.06
2023-01-23T12:26:14.481Z,11.10
2023-01-23T12:29:09.772Z,11.13
2023-01-23T12:31:53.486Z,11.25
2023-01-23T12:34:41.395Z,11.33
2023-01-23T12:37:32.150Z,11.34
2023-01-23T12:40:10.345Z,11.32
2023-01-23T12:42:43.900Z,11.42
2023-01-23T12:45:21.040Z,11.57
2023-01-23T12:48:00.202Z,11.57
2023-01-23T12:50:39.573Z,11.64
2023-01-23T12:53:12.627Z,11.76
2023-01-23T12:55:57.052Z,11.78
2023-01-23T12:58:30.063Z,11.80
2023-01-23T13:01:18.840Z,11.84
2023-01-23T13:04:06.226Z,11.86
2023-01-23T13:07:06.315Z,12.03
2023-01-23T13:09:47.003Z,12.33
2023-01-23T13:12:23.022Z,12.66
2023-01-23T13:15:13.413Z,12.72
2023-01-23T13:17:49.240Z,12.71
2023-01-23T13:20:41.717Z,12.75
2023-01-23T13:23:33.498Z,12.53
2023-01-23T13:26:29.489Z,12.42
2023-01-23T13:29:02.533Z,12.22
2023-01-23T13:31:47.495Z,12.14
2023-01-23T13:34:40.613Z,11.95
2023-01-23T13:37:51.721Z,11.82
2023-01-23T13:40:26.858Z,11.68
2023-01-23T13:42:55.766Z,11.61
2023-01-23T13:45:30.100Z,11.56
2023-01-23T14:22:39.033Z,10.70
2023-01-23T14:25:18.993Z,10.57
2023-01-23T14:27:54.566Z,10.46
2023-01-23T14:30:27.417Z,10.35
2023-01-23T14:32:56.760Z,10.24
2023-01-23T14:35:28.200Z,10.16
2023-01-23T14:38:03.915Z,10.06
2023-01-23T14:40:46.801Z,10.00
2023-01-23T14:43:23.005Z,9.97
2023-01-23T14:45:59.876Z,9.95
2023-01-23T14:48:29.637Z,9.93
2023-01-23T14:51:11.565Z,9.88
2023-01-23T14:53:55.590Z,9.86
2023-01-23T14:56:29.088Z,9.77
2023-01-23T14:59:01.466Z,9.77
2023-01-23T15:01:30.549Z,9.82
2023-01-23T15:04:05.394Z,9.79
2023-01-23T15:06:40.211Z,9.71
2023-01-23T15:09:17.409Z,9.67
2023-01-23T15:11:46.912Z,9.73
2023-01-23T15:14:28.138Z,9.70
2023-01-23T15:17:06.495Z,9.65
2023-01-23T15:19:40.132Z,9.63
2023-01-23T15:22:19.675Z,9.64
2023-01-23T15:24:50.229Z,9.63
2023-01-23T15:27:28.616Z,9.65
2023-01-23T15:30:31.066Z,9.64
2023-01-23T15:33:06.277Z,9.65
2023-01-23T15:35:36.529Z,9.64
2023-01-23T15:38:09.469Z,9.64
2023-01-23T15:40:40.664Z,9.62
2023-01-23T15:43:20.036Z,9.60
2023-01-23T15:45:49.518Z,9.59
2023-01-23T15:48:17.949Z,9.59
2023-01-23T15:50:46.638Z,9.64
2023-01-23T15:53:16.956Z,9.62
2023-01-23T15:55:47.495Z,9.61
2023-01-23T15:58:16.921Z,9.60
2023-01-23T16:00:46.618Z,9.63
2023-01-23T16:03:15.411Z,9.65
2023-01-23T16:05:44.164Z,9.63
2023-01-23T16:08:21.664Z,9.66
2023-01-23T16:10:52.084Z,9.64
2023-01-23T16:13:20.826Z,9.70
2023-01-23T16:15:49.714Z,9.70
2023-01-23T16:18:19.240Z,9.71
2023-01-23T16:20:48.430Z,9.70
2023-01-23T16:23:21.455Z,9.72
2023-01-23T16:25:53.121Z,9.72
2023-01-23T16:28:24.337Z,9.71
2023-01-23T16:30:53.169Z,9.68
2023-01-23T16:33:22.677Z,9.66
2023-01-23T16:35:52.645Z,9.66
2023-01-23T16:38:24.972Z,9.64
2023-01-23T16:40:57.202Z,9.64
2023-01-23T16:43:26.525Z,9.63
2023-01-23T16:45:57.077Z,9.60
2023-01-23T16:48:27.519Z,9.59
2023-01-23T16:51:00.442Z,9.57
2023-01-23T16:53:31.619Z,9.53
2023-01-23T16:56:02.932Z,9.53
2023-01-23T16:58:34.406Z,9.52
2023-01-23T17:01:05.207Z,9.51
2023-01-23T17:03:36.799Z,9.52
2023-01-23T17:06:05.961Z,9.50
2023-01-23T17:08:34.585Z,9.47
2023-01-23T17:11:06.546Z,9.48
2023-01-23T17:13:41.486Z,9.51
2023-01-23T17:16:26.209Z,9.47
2023-01-23T17:18:56.362Z,9.48
2023-01-23T17:21:29.403Z,9.48
2023-01-23T17:23:58.056Z,9.50
2023-01-23T17:26:28.216Z,9.49
2023-01-23T17:28:57.209Z,9.48
2023-01-23T17:31:29.089Z,9.47
2023-01-23T17:33:57.897Z,9.47
2023-01-23T17:36:27.271Z,9.45
2023-01-23T17:38:57.503Z,9.45
2023-01-23T17:41:28.123Z,9.46
2023-01-23T17:43:56.775Z,9.43
2023-01-23T17:46:27.951Z,9.43
2023-01-23T17:48:57.924Z,9.46
2023-01-23T17:51:27.693Z,9.47
2023-01-23T17:53:56.695Z,9.49
2023-01-23T17:56:25.467Z,9.50
2023-01-23T17:58:55.671Z,9.51
2023-01-23T18:01:26.995Z,9.51
2023-01-23T18:03:55.716Z,9.53
2023-01-23T18:06:24.374Z,9.55
2023-01-23T18:08:54.117Z,9.53
2023-01-23T18:11:24.779Z,9.52
2023-01-23T18:14:22.669Z,9.52
2023-01-23T18:16:52.202Z,9.53
2023-01-23T18:19:23.031Z,9.55
2023-01-23T18:21:55.369Z,9.55
2023-01-23T18:24:30.689Z,9.54
2023-01-23T18:27:02.606Z,9.58
2023-01-23T18:29:44.879Z,9.59
2023-01-23T18:32:44.850Z,9.62
2023-01-23T18:35:33.806Z,9.64
2023-01-23T18:38:20.955Z,9.67
2023-01-23T18:40:59.843Z,9.67
2023-01-23T18:43:40.040Z,9.67
2023-01-23T18:46:20.450Z,9.65
2023-01-23T18:48:56.791Z,9.67
2023-01-23T18:51:40.555Z,9.69
2023-01-23T18:54:26.269Z,9.69
2023-01-23T18:57:10.627Z,9.67
2023-01-23T18:59:49.928Z,9.66
2023-01-23T19:02:39.931Z,9.67
2023-01-23T19:05:31.471Z,9.68
2023-01-23T19:08:03.399Z,9.65
2023-01-23T19:10:48.586Z,9.65
2023-01-23T19:13:31.659Z,9.65
2023-01-23T19:16:08.798Z,9.63
2023-01-23T19:18:50.002Z,9.64
2023-01-23T19:21:29.067Z,9.64
2023-01-23T19:24:00.101Z,9.61
2023-01-23T19:26:31.181Z,9.64
2023-01-23T19:29:20.386Z,9.61
2023-01-23T19:32:06.835Z,9.63
2023-01-23T19:34:37.636Z,9.65
2023-01-23T19:37:07.510Z,9.66
2023-01-23T19:39:36.608Z,9.60
2023-01-23T19:42:05.601Z,9.64
2023-01-23T19:44:35.508Z,9.63
2023-01-23T19:47:07.336Z,9.58
2023-01-23T19:49:37.345Z,9.55
2023-01-23T19:52:06.475Z,9.58
2023-01-23T19:54:36.873Z,9.57
2023-01-23T19:57:05.659Z,9.54
2023-01-23T19:59:34.787Z,9.57
2023-01-23T20:02:17.792Z,9.55
2023-01-23T20:04:48.517Z,9.51
2023-01-23T20:07:17.103Z,9.55
2023-01-23T20:09:45.863Z,9.51
2023-01-23T20:12:15.070Z,9.47
2023-01-23T20:14:43.638Z,9.45
2023-01-23T20:17:12.682Z,9.40
2023-01-23T20:19:41.557Z,9.40
2023-01-23T20:22:11.599Z,9.38
2023-01-23T20:24:40.193Z,9.34
2023-01-23T20:27:08.801Z,9.29
2023-01-23T20:29:39.077Z,9.24
2023-01-23T20:32:08.100Z,9.19
2023-01-23T20:34:36.796Z,9.12
2023-01-23T20:37:05.188Z,9.10
2023-01-23T20:39:35.282Z,9.03
2023-01-23T20:42:03.919Z,8.96
2023-01-23T20:44:32.455Z,8.87
2023-01-23T20:47:00.939Z,8.82
2023-01-23T20:49:29.945Z,8.78
2023-01-23T20:52:18.957Z,8.74
2023-01-23T20:54:49.600Z,8.69
2023-01-23T20:57:18.698Z,8.68
2023-01-23T20:59:47.988Z,8.63
2023-01-23T21:02:27.547Z,8.54
2023-01-23T21:04:56.037Z,8.49
2023-01-23T21:07:26.677Z,8.42
2023-01-23T21:09:56.939Z,8.35
2023-01-23T21:12:25.627Z,8.31
2023-01-23T21:14:54.459Z,8.27
2023-01-23T21:17:23.226Z,8.20
2023-01-23T21:19:52.187Z,8.19
2023-01-23T21:22:20.949Z,8.14
2023-01-23T21:24:49.526Z,8.11
2023-01-23T21:27:21.268Z,8.08
2023-01-23T21:29:51.008Z,8.07
2023-01-23T21:32:21.318Z,8.08
2023-01-23T21:34:50.067Z,8.04
2023-01-23T21:37:19.869Z,8.07
2023-01-23T21:39:48.460Z,8.05
2023-01-23T21:42:18.578Z,8.05
2023-01-23T21:44:47.148Z,8.07
2023-01-23T21:47:15.443Z,8.06
2023-01-23T21:49:44.031Z,8.11
2023-01-23T21:52:12.818Z,8.15
2023-01-23T21:54:44.571Z,8.17
2023-01-23T21:57:13.195Z,8.15
2023-01-23T22:00:03.667Z,8.19
2023-01-23T22:02:31.124Z,8.18
2023-01-23T22:05:02.057Z,8.15
2023-01-23T22:07:30.861Z,8.17
2023-01-23T22:10:00.564Z,8.15
2023-01-23T22:12:31.076Z,8.06
2023-01-23T22:15:08.125Z,8.03
2023-01-23T22:17:37.972Z,8.01
2023-01-23T22:20:07.887Z,8.03
2023-01-23T22:22:38.777Z,8.00
2023-01-23T22:25:10.478Z,7.95
2023-01-23T22:27:41.579Z,7.90
2023-01-23T22:30:13.489Z,7.88
2023-01-23T22:32:48.328Z,7.85
2023-01-23T22:35:16.818Z,7.84
2023-01-23T22:37:45.518Z,7.82
2023-01-23T22:40:30.103Z,7.81
2023-01-23T22:43:01.191Z,7.78
2023-01-23T22:45:31.384Z,7.73
2023-01-23T22:48:00.385Z,7.71
2023-01-23T22:50:29.805Z,7.67
2023-01-23T22:52:59.507Z,7.70
2023-01-23T22:55:43.499Z,7.71
2023-01-23T22:58:12.215Z,7.70
2023-01-23T23:00:47.358Z,7.68
2023-01-23T23:03:16.240Z,7.65
2023-01-23T23:05:44.909Z,7.55
2023-01-23T23:08:13.617Z,7.52
2023-01-23T23:10:43.418Z,7.53
2023-01-23T23:13:12.012Z,7.52
2023-01-23T23:15:43.858Z,7.47
2023-01-23T23:18:15.483Z,7.46
2023-01-23T23:20:46.664Z,7.48
2023-01-23T23:23:16.123Z,7.49
2023-01-23T23:25:46.849Z,7.46
2023-01-23T23:28:19.611Z,7.45
2023-01-23T23:30:51.088Z,7.49
2023-01-23T23:33:20.137Z,7.50
2023-01-23T23:35:50.692Z,7.52
2023-01-23T23:38:19.400Z,7.54
2023-01-23T23:40:56.873Z,7.53
2023-01-23T23:43:27.227Z,7.50
2023-01-23T23:46:03.830Z,7.49
2023-01-23T23:48:48.313Z,7.45
2023-01-23T23:51:26.837Z,7.43
2023-01-23T23:53:57.080Z,7.41
2023-01-23T23:56:28.457Z,7.41
2023-01-23T23:58:57.943Z,7.44
